Perdue, Canada
Current Conditions -  °F | °C
As of 9:00 AM on Thursday 23 Oct 2014 (Local Time) from CYXE Reporting Station
Overcast Overcast  
Wind Chill: 34°   Ceiling: 15000
Heat Index: 41°   Visibility: 15mi
Dew Point: 37°   Wind: 12mph
Humidity: 87%   Direction: 160°SSE
Pressure: 29.65"   Gusts: NA
Location:  52.05°N, 107.55°W
Report Text: CYXE 231500Z 16010KT 15SM BKN150 OVC250 05/03 A2965 RMK AC5CI3 SLP062
Loading
Personal Weather Stations






























Interactive Weather Map
Tropical Storm Tracking
New forecast layout! Learn more

10-Day Weather Forecast

Advertisements
Track Severe Weather on mobile